Date,TemperatureHighF,TemperatureAvgF,TemperatureLowF,DewpointHighF,DewpointAvgF,DewpointLowF,HumidityHigh,HumidityAvg,HumidityLow,PressureMaxIn,PressureMinIn,WindSpeedMaxMPH,WindSpeedAvgMPH,GustSpeedMaxMPH,PrecipitationSumIn
2013-2-1,6,1,-5,0,-6,-10,77,70,61,0.00,40.00,11,6,17,0.00
2013-2-2,13,8,6,2,0,-2,78,70,53,0.00,40.00,6,2,11,0.00
2013-2-3,22,13,7,8,3,-9,76,65,28,0.00,40.00,9,4,15,0.00
2013-2-4,18,13,8,4,-1,-14,76,56,27,0.00,40.00,6,2,14,0.00
2013-2-5,29,20,8,17,10,1,76,66,60,0.00,40.00,9,-40,16,0.00
2013-2-6,33,22,7,22,12,2,78,65,52,0.00,40.00,6,2,13,0.00
2013-2-7,34,32,23,22,20,11,62,62,62,0.00,40.00,5,2,11,0.00
2013-2-8,26,22,11,17,11,0,70,62,53,0.00,40.00,5,2,15,0.00
2013-2-9,30,24,9,24,17,4,78,74,61,0.00,40.00,9,5,19,0.00
2013-2-10,42,32,23,30,22,12,78,67,62,0.00,40.00,22,6,44,0.00
2013-2-11,38,32,30,26,20,17,63,62,58,0.00,40.00,21,13,34,0.00
2013-2-12,31,26,23,18,14,11,66,59,55,0.00,40.00,9,7,14,0.00
2013-2-13,38,36,33,23,22,22,63,58,52,0.00,40.00,8,5,12,0.00
2013-2-14,36,35,33,25,24,22,63,63,63,0.00,40.00,7,5,17,0.00
2013-2-15,28,21,13,5,2,0,56,45,32,0.00,40.00,6,3,12,0.00
2013-2-16,19,13,10,2,-2,-6,62,51,36,0.00,40.00,4,2,12,0.00
2013-2-17,27,17,4,14,3,-5,63,55,40,0.00,40.00,7,3,13,0.00
2013-2-18,47,35,26,34,23,15,65,62,57,0.00,40.00,12,5,19,0.00
2013-2-19,23,13,9,12,3,-5,68,63,53,0.00,40.00,11,7,18,0.00
2013-2-20,21,11,6,3,-2,-5,73,58,46,0.00,40.00,6,4,14,0.00
2013-2-21,26,18,11,15,8,1,77,68,63,0.00,40.00,11,6,21,0.00
2013-2-22,32,29,24,21,18,13,63,63,62,0.00,40.00,11,3,19,0.00
2013-2-23,30,27,24,17,15,13,63,61,56,0.00,40.00,10,7,19,0.00
2013-2-24,40,27,15,21,14,8,79,58,39,0.00,40.00,6,2,9,0.00
2013-2-25,41,30,18,27,19,10,74,63,52,0.00,40.00,5,2,8,0.00
2013-2-26,33,32,29,22,20,17,63,63,62,0.00,40.00,15,10,30,0.00
2013-2-27,33,30,28,21,18,16,62,62,61,0.00,40.00,8,5,20,0.00
2013-2-28,34,32,25,26,20,13,74,63,58,0.00,40.00,9,5,17,0.00